^^
Saratoga-Weather Station Historical Data
Daily Summary for March 2, 2020 Units:  English    Metric   Both
Daily Weekly Monthly Yearly Custom
  High: Low: Average:
Temperature: 73.8 °F 54.3 °F 61.9 °F
Dew Point: 55.2 °F 50.4 °F 52.9 °F
Humidity: 92% 47% 74%
Wind Speed: 4.9mph 0mph 0.8mph
Wind Gust: 7mph - -
Wind- - South
Pressure: 30.1 in 30 in -
Precipitation: 0 in    
Historical Graphs
 
 
Tabular Data for March 2, 2020
Time Temperature Dew Point Pressure Wind Wind Speed Wind Gust Humidity Rainfall Rate (Hourly) solar
00:02 57.4 °F 54.5 °F 30 in WSW 0.9 mph 4 mph 90% 0 in 0 W/m2
00:07 57.2 °F 54.3 °F 30 in WSW 0.9 mph 2 mph 90% 0 in 0 W/m2
00:12 57.2 °F 54.3 °F 30 in WSW 0.9 mph 3 mph 90% 0 in 0 W/m2
00:17 57.2 °F 54.3 °F 30 in West 0.9 mph 2 mph 90% 0 in 0 W/m2
00:22 57 °F 54.1 °F 30 in SW 0.9 mph 2 mph 90% 0 in 0 W/m2
00:27 57 °F 54.1 °F 30 in NNW 0.9 mph 5 mph 90% 0 in 0 W/m2
00:32 57.2 °F 54.3 °F 30 in WNW 2 mph 3 mph 90% 0 in 0 W/m2
00:37 57.2 °F 54 °F 30 in SSW 4 mph 5 mph 89% 0 in 0 W/m2
00:42 57.2 °F 54 °F 30 in WNW 0.9 mph 2 mph 89% 0 in 0 W/m2
00:47 57.4 °F 54.1 °F 30 in West 2 mph 4 mph 89% 0 in 0 W/m2
00:52 57.4 °F 54.1 °F 30 in West 0.9 mph 2 mph 89% 0 in 0 W/m2
00:57 57.2 °F 54 °F 30 in West 0.9 mph 2 mph 89% 0 in 0 W/m2
01:02 57 °F 53.8 °F 30 in West 0.9 mph 2 mph 89% 0 in 0 W/m2
01:07 57 °F 54.1 °F 30 in WNW 0.9 mph 1 mph 90% 0 in 0 W/m2
01:12 57 °F 53.8 °F 30 in Calm   1 mph 89% 0 in 0 W/m2
01:17 57.4 °F 54.1 °F 30 in West 2 mph 4 mph 89% 0 in 0 W/m2
01:22 57.6 °F 53.8 °F 30 in West 0.9 mph 3 mph 87% 0 in 0 W/m2
01:27 57.7 °F 54 °F 30 in Calm   3 mph 87% 0 in 0 W/m2
01:32 57.9 °F 54.1 °F 30 in SSE 0.9 mph 1 mph 87% 0 in 0 W/m2
01:37 57.7 °F 54 °F 30 in Calm   3 mph 87% 0 in 0 W/m2
01:42 57.6 °F 54 °F 30 in WNW 0.9 mph 4 mph 88% 0 in 0 W/m2
01:47 57.4 °F 53.6 °F 30 in ENE 0.9 mph 1 mph 87% 0 in 0 W/m2
01:52 57.4 °F 53.6 °F 30 in Calm   1 mph 87% 0 in 0 W/m2
01:57 57.4 °F 53.8 °F 30 in Calm   1 mph 88% 0 in 0 W/m2
02:02 57 °F 53.4 °F 30 in Calm   2 mph 88% 0 in 0 W/m2
02:07 56.8 °F 53.6 °F 30 in Calm   1 mph 89% 0 in 0 W/m2
02:12 56.7 °F 53.4 °F 30 in Calm   2 mph 89% 0 in 0 W/m2
02:17 56.7 °F 53.4 °F 30 in SSE 0.9 mph 3 mph 89% 0 in 0 W/m2
02:22 56.7 °F 53.4 °F 30 in ESE 0.9 mph 2 mph 89% 0 in 0 W/m2
02:27 56.7 °F 53.4 °F 30 in SSE 0.9 mph 2 mph 89% 0 in 0 W/m2
02:32 56.5 °F 53.2 °F 30 in SE 0.9 mph 1 mph 89% 0 in 0 W/m2
02:37 56.5 °F 52.9 °F 30 in Calm   2 mph 88% 0 in 0 W/m2
02:42 56.5 °F 53.2 °F 30 in Calm   1 mph 89% 0 in 0 W/m2
02:48 56.3 °F 53.1 °F 30 in Calm   2 mph 89% 0 in 0 W/m2
02:53 56.1 °F 52.9 °F 30 in SE 0.9 mph 3 mph 89% 0 in 0 W/m2
02:58 55.9 °F 52.7 °F 30 in SE 0.9 mph 2 mph 89% 0 in 0 W/m2
03:03 55.8 °F 52.5 °F 30 in Calm   2 mph 89% 0 in 0 W/m2
03:08 55.6 °F 52.7 °F 30 in Calm   2 mph 90% 0 in 0 W/m2
03:13 55.6 °F 52.7 °F 30 in WSW 2 mph 2 mph 90% 0 in 0 W/m2
03:18 55.4 °F 52.5 °F 30 in Calm     90% 0 in 0 W/m2
03:23 55.2 °F 52.3 °F 30 in Calm     90% 0 in 0 W/m2
03:28 55 °F 52.5 °F 30 in Calm     91% 0 in 0 W/m2
03:33 54.9 °F 52.3 °F 30 in West 0.9 mph 3 mph 91% 0 in 0 W/m2
03:38 54.9 °F 52.3 °F 30 in Calm   1 mph 91% 0 in 0 W/m2
03:43 55 °F 52.7 °F 30 in Calm   3 mph 92% 0 in 0 W/m2
03:48 55 °F 52.5 °F 30 in NNW 2 mph 3 mph 91% 0 in 0 W/m2
03:53 55 °F 52.5 °F 30 in NNW 0.9 mph 4 mph 91% 0 in 0 W/m2
03:58 55.4 °F 52.5 °F 30 in Calm   2 mph 90% 0 in 0 W/m2
04:03 55.6 °F 52.7 °F 30 in SSE 0.9 mph 1 mph 90% 0 in 0 W/m2
04:08 55.6 °F 52.7 °F 30 in NE 0.9 mph 3 mph 90% 0 in 0 W/m2
04:13 55.8 °F 52.5 °F 30 in Calm   1 mph 89% 0 in 0 W/m2
04:18 55.9 °F 52.5 °F 30 in WNW 2 mph 2 mph 88% 0 in 0 W/m2
04:23 56.1 °F 52.7 °F 30 in East 2.9 mph 6 mph 88% 0 in 0 W/m2
04:28 56.1 °F 52.3 °F 30 in NW 0.9 mph 2 mph 87% 0 in 0 W/m2
04:33 56.1 °F 52.3 °F 30 in ENE 0.9 mph 1 mph 87% 0 in 0 W/m2
04:38 56.1 °F 52.3 °F 30 in NE 0.9 mph 2 mph 87% 0 in 0 W/m2
04:43 56.3 °F 52.5 °F 30 in Calm   1 mph 87% 0 in 0 W/m2
04:48 56.1 °F 52.7 °F 30 in Calm   1 mph 88% 0 in 0 W/m2
04:53 55.9 °F 52.7 °F 30 in Calm   1 mph 89% 0 in 0 W/m2
04:58 55.8 °F 52.3 °F 30 in Calm     88% 0 in 0 W/m2
05:03 55.8 °F 52.5 °F 30 in Calm     89% 0 in 0 W/m2
05:08 55.8 °F 52.5 °F 30 in Calm     89% 0 in 0 W/m2
05:13 55.6 °F 52.7 °F 30 in Calm   2 mph 90% 0 in 0 W/m2
05:18 55.4 °F 52.2 °F 30 in East 2.9 mph 3 mph 89% 0 in 0 W/m2
05:23 55.6 °F 52.3 °F 30 in East 0.9 mph 1 mph 89% 0 in 0 W/m2
05:28 55.8 °F 52.3 °F 30 in East 0.9 mph 1 mph 88% 0 in 0 W/m2
05:33 55.8 °F 52.3 °F 30 in Calm     88% 0 in 0 W/m2
05:38 55.6 °F 52.2 °F 30 in Calm   1 mph 88% 0 in 0 W/m2
05:43 55.2 °F 51.8 °F 30 in ESE 0.9 mph 1 mph 88% 0 in 0 W/m2
05:48 55 °F 51.6 °F 30 in Calm   1 mph 88% 0 in 0 W/m2
05:53 55 °F 51.8 °F 30 in ENE 0.9 mph 3 mph 89% 0 in 0 W/m2
05:59 55 °F 51.6 °F 30 in Calm     88% 0 in 0 W/m2
06:04 55 °F 51.6 °F 30 in WNW 0.9 mph 2 mph 88% 0 in 0 W/m2
06:09 54.9 °F 51.4 °F 30 in Calm   1 mph 88% 0 in 0 W/m2
06:14 54.9 °F 51.6 °F 30 in SW 0.9 mph 2 mph 89% 0 in 0 W/m2
06:19 54.7 °F 51.4 °F 30 in Calm   1 mph 89% 0 in 0 W/m2
06:24 54.5 °F 51.6 °F 30 in Calm   1 mph 90% 0 in 0 W/m2
06:29 54.3 °F 51.4 °F 30 in SW 0.9 mph 1 mph 90% 0 in 0 W/m2
06:34 54.3 °F 51.4 °F 30 in Calm   1 mph 90% 0 in 0 W/m2
06:39 54.3 °F 51.4 °F 30 in Calm     90% 0 in 0 W/m2
06:44 54.3 °F 51.8 °F 30 in Calm   1 mph 91% 0 in 0 W/m2
06:49 54.3 °F 51.8 °F 30 in Calm   1 mph 91% 0 in 0 W/m2
06:54 54.5 °F 52 °F 30 in Calm   1 mph 91% 0 in 0 W/m2
06:59 54.5 °F 52 °F 30 in Calm   2 mph 91% 0 in 0 W/m2
07:04 54.7 °F 52.2 °F 30 in NW 2 mph 2 mph 91% 0 in 0 W/m2
07:09 54.9 °F 52 °F 30 in Calm     90% 0 in 5 W/m2
07:14 55 °F 52.2 °F 30 in Calm     90% 0 in 5 W/m2
07:19 55.2 °F 52 °F 30 in Calm   1 mph 89% 0 in 7 W/m2
07:24 55.4 °F 52.2 °F 30 in ENE 0.9 mph 1 mph 89% 0 in 11 W/m2
07:29 55.4 °F 52.2 °F 30 in Calm   1 mph 89% 0 in 14 W/m2
07:34 55.4 °F 52.2 °F 30 in Calm   1 mph 89% 0 in 19 W/m2
07:39 55.2 °F 52 °F 30 in Calm     89% 0 in 26 W/m2
07:44 55.4 °F 52.2 °F 30 in Calm   1 mph 89% 0 in 32 W/m2
07:49 55.6 °F 52.7 °F 30 in Calm     90% 0 in 37 W/m2
07:54 55.6 °F 52.7 °F 30 in Calm     90% 0 in 47 W/m2
07:59 55.8 °F 52.9 °F 30 in Calm     90% 0 in 53 W/m2
08:05 55.8 °F 52.9 °F 30 in Calm     90% 0 in 63 W/m2
08:10 55.9 °F 52.7 °F 30 in ENE 0.9 mph 1 mph 89% 0 in 65 W/m2
08:15 56.1 °F 52.7 °F 30 in ESE 2 mph 2 mph 88% 0 in 69 W/m2
08:20 56.3 °F 52.5 °F 30 in Calm   1 mph 87% 0 in 67 W/m2
08:25 56.5 °F 52.7 °F 30 in Calm   1 mph 87% 0 in 72 W/m2
08:30 56.7 °F 52.9 °F 30 in East 0.9 mph 1 mph 87% 0 in 77 W/m2
08:35 56.8 °F 53.1 °F 30 in Calm     87% 0 in 190 W/m2
08:40 56.8 °F 52.7 °F 30 in Calm     86% 0 in 56 W/m2
08:45 57 °F 52.9 °F 30 in Calm   1 mph 86% 0 in 74 W/m2
08:50 57 °F 52.5 °F 30 in Calm     85% 0 in 88 W/m2
08:55 57.2 °F 52.7 °F 30 in NE 2 mph 2 mph 85% 0 in 179 W/m2
09:00 57.4 °F 52.9 °F 30 in Calm   2 mph 85% 0 in 134 W/m2
09:05 57.6 °F 53.1 °F 30 in Calm   1 mph 85% 0 in 311 W/m2
09:10 57.7 °F 53.6 °F 30 in East 2 mph 2 mph 86% 0 in 135 W/m2
09:15 58.3 °F 53.8 °F 30 in NW 0.9 mph 4 mph 85% 0 in 135 W/m2
09:20 58.6 °F 54.1 °F 30 in WNW 0.9 mph 1 mph 85% 0 in 366 W/m2
09:25 59 °F 54.1 °F 30 in Calm   4 mph 84% 0 in 281 W/m2
09:30 59.4 °F 54.1 °F 30 in NW 0.9 mph 2 mph 83% 0 in 127 W/m2
09:35 59.9 °F 54.7 °F 30 in West 0.9 mph 3 mph 83% 0 in 118 W/m2
09:40 60.4 °F 55.2 °F 30 in Calm   4 mph 83% 0 in 109 W/m2
09:45 60.8 °F 55.2 °F 30 in East 2 mph 3 mph 82% 0 in 98 W/m2
09:50 61.2 °F 54.9 °F 30 in Calm   3 mph 80% 0 in 107 W/m2
09:55 61.2 °F 54.7 °F 30 in Calm   1 mph 79% 0 in 151 W/m2
10:00 61.7 °F 55 °F 30 in Calm   2 mph 79% 0 in 192 W/m2
10:05 62.2 °F 54.9 °F 30 in Calm   4 mph 77% 0 in 193 W/m2
10:10 62.6 °F 54.5 °F 30 in NNE 2 mph 2 mph 75% 0 in 239 W/m2
10:15 63 °F 55.2 °F 30 in Calm   2 mph 76% 0 in 276 W/m2
10:20 63 °F 54.9 °F 30 in East 4 mph 4 mph 75% 0 in 272 W/m2
10:25 63 °F 55.2 °F 30 in Calm   3 mph 76% 0 in 237 W/m2
10:30 62.8 °F 55 °F 30 in Calm   6 mph 76% 0 in 229 W/m2
10:35 62.6 °F 55.2 °F 30 in NE 0.9 mph 2 mph 77% 0 in 199 W/m2
10:40 62.4 °F 55 °F 30.1 in NNW 2.9 mph 6 mph 77% 0 in 206 W/m2
10:45 62.2 °F 54.9 °F 30.1 in ENE 2 mph 4 mph 77% 0 in 211 W/m2
10:50 62.1 °F 54.7 °F 30.1 in NW 0.9 mph 6 mph 77% 0 in 227 W/m2
10:55 61.9 °F 54.9 °F 30.1 in North 0.9 mph 3 mph 78% 0 in 257 W/m2
11:00 62.1 °F 55 °F 30.1 in NW 2.9 mph 5 mph 78% 0 in 248 W/m2
11:05 62.1 °F 54.7 °F 30.1 in East 0.9 mph 3 mph 77% 0 in 255 W/m2
11:10 62.2 °F 54.9 °F 30.1 in North 2 mph 3 mph 77% 0 in 274 W/m2
11:15 62.4 °F 55 °F 30.1 in ENE 0.9 mph 3 mph 77% 0 in 271 W/m2
11:20 62.8 °F 55 °F 30.1 in WSW 2.9 mph 4 mph 76% 0 in 267 W/m2
11:25 62.8 °F 54 °F 30.1 in North 4.9 mph 5 mph 73% 0 in 267 W/m2
11:30 62.8 °F 53.6 °F 30.1 in NNW 2 mph 2 mph 72% 0 in 274 W/m2
11:35 63.1 °F 54.7 °F 30.1 in East 4 mph 4 mph 74% 0 in 299 W/m2
11:40 63.5 °F 55 °F 30.1 in NE 0.9 mph 2 mph 74% 0 in 316 W/m2
11:45 63.9 °F 55 °F 30.1 in NE 0.9 mph 3 mph 73% 0 in 403 W/m2
11:50 64.2 °F 55 °F 30.1 in Calm   6 mph 72% 0 in 294 W/m2
11:55 64.4 °F 54.3 °F 30.1 in Calm   2 mph 70% 0 in 315 W/m2
12:00 64.4 °F 54.3 °F 30.1 in Calm   2 mph 70% 0 in 271 W/m2
12:05 64.6 °F 54.1 °F 30.1 in East 2 mph 3 mph 69% 0 in 316 W/m2
12:10 64.8 °F 54.7 °F 30.1 in NNW 0.9 mph 2 mph 70% 0 in 302 W/m2
12:15 64.9 °F 53.2 °F 30.1 in East 2.9 mph 3 mph 66% 0 in 359 W/m2
12:20 64.9 °F 52.5 °F 30.1 in ENE 0.9 mph 3 mph 64% 0 in 301 W/m2
12:25 65.1 °F 53.4 °F 30.1 in East 0.9 mph 2 mph 66% 0 in 299 W/m2
12:30 65.5 °F 53.1 °F 30.1 in East 0.9 mph 3 mph 64% 0 in 341 W/m2
12:35 65.7 °F 52.7 °F 30.1 in SSE 2 mph 3 mph 63% 0 in 334 W/m2
12:40 65.7 °F 52.3 °F 30.1 in North 0.9 mph 4 mph 62% 0 in 355 W/m2
12:45 65.7 °F 53.2 °F 30.1 in Calm   6 mph 64% 0 in 381 W/m2
12:50 66 °F 53.4 °F 30.1 in East 0.9 mph 2 mph 64% 0 in 311 W/m2
12:55 66.6 °F 54 °F 30.1 in East 2.9 mph 3 mph 64% 0 in 932 W/m2
13:00 66.9 °F 53.4 °F 30.1 in ESE 2 mph 5 mph 62% 0 in 932 W/m2
13:05 67.6 °F 53.8 °F 30 in East 0.9 mph 2 mph 61% 0 in 835 W/m2
13:11 68.2 °F 53.8 °F 30 in NE 2 mph 5 mph 60% 0 in 814 W/m2
13:16 68.5 °F 54.1 °F 30 in NE 2.9 mph 4 mph 60% 0 in 923 W/m2
13:21 68.4 °F 53.4 °F 30 in South 2 mph 3 mph 59% 0 in 373 W/m2
13:26 68.5 °F 54.1 °F 30 in ENE 0.9 mph 7 mph 60% 0 in 993 W/m2
13:31 68.7 °F 54.7 °F 30 in NNW 0.9 mph 3 mph 61% 0 in 490 W/m2
13:36 68.5 °F 53.6 °F 30 in NNW 2 mph 6 mph 59% 0 in 279 W/m2
13:41 68.4 °F 54.3 °F 30 in Calm   2 mph 61% 0 in 246 W/m2
13:46 68 °F 52.7 °F 30 in NNW 0.9 mph 2 mph 58% 0 in 209 W/m2
13:51 67.8 °F 52.9 °F 30 in ENE 0.9 mph 2 mph 59% 0 in 223 W/m2
13:56 67.6 °F 52.9 °F 30 in WSW 2.9 mph 4 mph 59% 0 in 250 W/m2
14:01 67.6 °F 53.2 °F 30 in NNW 0.9 mph 4 mph 60% 0 in 287 W/m2
14:06 67.6 °F 53.2 °F 30 in NW 2.9 mph 3 mph 60% 0 in 403 W/m2
14:11 67.6 °F 52.9 °F 30 in West 0.9 mph 2 mph 59% 0 in 376 W/m2
14:16 67.8 °F 53.4 °F 30 in East 0.9 mph 5 mph 60% 0 in 359 W/m2
14:21 68.2 °F 53.8 °F 30 in Calm   2 mph 60% 0 in 427 W/m2
14:26 68.5 °F 53.6 °F 30 in NE 2.9 mph 6 mph 59% 0 in 833 W/m2
14:31 69.1 °F 53.6 °F 30 in ESE 2 mph 3 mph 58% 0 in 719 W/m2
14:36 69.3 °F 53.8 °F 30 in NNW 0.9 mph 3 mph 58% 0 in 918 W/m2
14:41 69.6 °F 53.2 °F 30 in SW 0.9 mph 1 mph 56% 0 in 870 W/m2
14:46 69.8 °F 54.3 °F 30 in North 2.9 mph 3 mph 58% 0 in 879 W/m2
14:51 70.3 °F 54 °F 30 in NW 4 mph 4 mph 56% 0 in 789 W/m2
14:56 70.3 °F 54 °F 30 in ESE 2.9 mph 6 mph 56% 0 in 186 W/m2
15:01 70 °F 53.6 °F 30 in North 0.9 mph 2 mph 56% 0 in 185 W/m2
15:06 69.6 °F 53.2 °F 30 in NE 2 mph 6 mph 56% 0 in 221 W/m2
15:11 69.3 °F 52.9 °F 30 in North 2 mph 3 mph 56% 0 in 206 W/m2
15:16 69.3 °F 53.8 °F 30 in SE 2.9 mph 6 mph 58% 0 in 763 W/m2
15:21 69.4 °F 53.1 °F 30 in SE 2.9 mph 4 mph 56% 0 in 292 W/m2
15:26 69.8 °F 52.9 °F 30 in NW 2 mph 3 mph 55% 0 in 257 W/m2
15:31 69.6 °F 52.7 °F 30 in ENE 2 mph 2 mph 55% 0 in 390 W/m2
15:36 69.6 °F 52.2 °F 30 in NW 2 mph 4 mph 54% 0 in 304 W/m2
15:41 69.4 °F 52.5 °F 30 in ENE 0.9 mph 3 mph 55% 0 in 330 W/m2
15:46 69.8 °F 52 °F 30 in Calm   4 mph 53% 0 in 415 W/m2
15:51 70.3 °F 52.3 °F 30 in South 2 mph 2 mph 53% 0 in 745 W/m2
15:56 71.1 °F 53.6 °F 30 in Calm   3 mph 54% 0 in 715 W/m2
16:02 71.4 °F 54 °F 30 in ENE 2 mph 3 mph 54% 0 in 740 W/m2
16:07 71.4 °F 52.3 °F 30 in SE 0.9 mph 2 mph 51% 0 in 647 W/m2
16:12 71.2 °F 53.2 °F 30 in WNW 2 mph 4 mph 53% 0 in 580 W/m2
16:17 71.2 °F 53.2 °F 30 in SSE 2 mph 3 mph 53% 0 in 209 W/m2
16:22 71.4 °F 52.9 °F 30 in East 2 mph 2 mph 52% 0 in 207 W/m2
16:27 71.4 °F 52.9 °F 30 in Calm   1 mph 52% 0 in 171 W/m2
16:32 71.8 °F 52.7 °F 30 in North 0.9 mph 2 mph 51% 0 in 691 W/m2
16:37 72 °F 53.4 °F 30 in NE 0.9 mph 4 mph 52% 0 in 694 W/m2
16:42 72.1 °F 52.5 °F 30 in NNW 2 mph 4 mph 50% 0 in 679 W/m2
16:47 72.3 °F 53.8 °F 30 in SSE 0.9 mph 2 mph 52% 0 in 647 W/m2
16:52 72.9 °F 52.5 °F 30 in ESE 2 mph 3 mph 49% 0 in 615 W/m2
16:57 72.5 °F 52.3 °F 30 in SE 0.9 mph 1 mph 49% 0 in 178 W/m2
17:02 72.9 °F 54.1 °F 30 in East 0.9 mph 1 mph 52% 0 in 606 W/m2
17:07 73.2 °F 52.3 °F 30 in NNE 0.9 mph 3 mph 48% 0 in 561 W/m2
17:12 73 °F 52.7 °F 30 in ESE 2.9 mph 6 mph 49% 0 in 554 W/m2
17:17 73 °F 52.2 °F 30 in NNE 0.9 mph 4 mph 48% 0 in 522 W/m2
17:22 72.9 °F 52.5 °F 30 in SW 2 mph 6 mph 49% 0 in 534 W/m2
17:28 73 °F 52.2 °F 30 in East 0.9 mph 4 mph 48% 0 in 545 W/m2
17:33 73 °F 53.2 °F 30 in East 2 mph 6 mph 50% 0 in 543 W/m2
17:38 73.2 °F 52.3 °F 30 in ENE 2 mph 5 mph 48% 0 in 541 W/m2
17:43 73.2 °F 53.4 °F 30 in ESE 2.9 mph 3 mph 50% 0 in 494 W/m2
17:48 73.2 °F 52.3 °F 30 in NNW 2 mph 3 mph 48% 0 in 496 W/m2
17:53 73.2 °F 52.3 °F 30 in East 2 mph 3 mph 48% 0 in 446 W/m2
17:58 73.4 °F 53.1 °F 30 in ESE 0.9 mph 4 mph 49% 0 in 334 W/m2
18:03 73.6 °F 53.8 °F 30 in Calm   2 mph 50% 0 in 424 W/m2
18:08 73.8 °F 52.3 °F 30 in SE 2.9 mph 6 mph 47% 0 in 404 W/m2
18:13 73.8 °F 52.3 °F 30 in ESE 0.9 mph 3 mph 47% 0 in 378 W/m2
18:18 73.6 °F 52.2 °F 30 in ENE 2 mph 3 mph 47% 0 in 353 W/m2
18:23 73.6 °F 52.2 °F 30 in Calm   3 mph 47% 0 in 334 W/m2
18:28 73.2 °F 51.8 °F 30 in SE 2.9 mph 3 mph 47% 0 in 320 W/m2
18:33 72.9 °F 52 °F 30 in NNE 2 mph 2 mph 48% 0 in 283 W/m2
18:38 73 °F 51.6 °F 30 in Calm   1 mph 47% 0 in 257 W/m2
18:43 73.4 °F 52 °F 30 in ESE 2 mph 3 mph 47% 0 in 230 W/m2
18:48 73.4 °F 52 °F 30 in SE 0.9 mph 3 mph 47% 0 in 230 W/m2
18:54 73 °F 51.6 °F 30 in Calm   3 mph 47% 0 in 213 W/m2
18:59 72.9 °F 52.5 °F 30 in WNW 0.9 mph 2 mph 49% 0 in 58 W/m2
19:04 72.3 °F 53.2 °F 30 in Calm   1 mph 51% 0 in 42 W/m2
19:09 71.8 °F 54.3 °F 30 in Calm   3 mph 54% 0 in 77 W/m2
19:14 71.2 °F 54.3 °F 30 in Calm     55% 0 in 125 W/m2
19:19 70.9 °F 54.3 °F 30 in Calm     56% 0 in 33 W/m2
19:24 70.3 °F 54.3 °F 30 in WNW 0.9 mph 1 mph 57% 0 in 33 W/m2
19:29 70 °F 54 °F 30 in WNW 0.9 mph 1 mph 57% 0 in 28 W/m2
19:34 69.3 °F 53.8 °F 30 in WNW 0.9 mph 1 mph 58% 0 in 23 W/m2
19:39 68.7 °F 53.8 °F 30 in Calm   2 mph 59% 0 in 19 W/m2
19:44 67.8 °F 53.4 °F 30 in WNW 0.9 mph 1 mph 60% 0 in 16 W/m2
19:49 67.3 °F 53.8 °F 30 in WNW 0.9 mph 2 mph 62% 0 in 14 W/m2
19:54 66.6 °F 53.6 °F 30 in Calm   1 mph 63% 0 in 11 W/m2
19:59 65.8 °F 52.9 °F 30 in Calm   1 mph 63% 0 in 7 W/m2
20:04 65.5 °F 53.1 °F 30 in Calm   1 mph 64% 0 in 5 W/m2
20:09 64.9 °F 52.9 °F 30 in Calm   1 mph 65% 0 in 0 W/m2
20:14 64.6 °F 52.5 °F 30.1 in Calm   1 mph 65% 0 in 0 W/m2
20:19 64 °F 52.5 °F 30.1 in Calm   1 mph 66% 0 in 0 W/m2
20:24 63.7 °F 52.5 °F 30.1 in Calm     67% 0 in 0 W/m2
20:29 63.1 °F 52 °F 30.1 in Calm     67% 0 in 0 W/m2
20:34 63 °F 52.2 °F 30.1 in Calm     68% 0 in 0 W/m2
20:39 62.4 °F 51.8 °F 30.1 in Calm     68% 0 in 0 W/m2
20:44 62.2 °F 51.6 °F 30.1 in Calm     68% 0 in 0 W/m2
20:49 61.9 °F 51.6 °F 30.1 in Calm     69% 0 in 0 W/m2
20:54 61.5 °F 51.3 °F 30.1 in Calm     69% 0 in 0 W/m2
20:59 61.2 °F 51.3 °F 30.1 in Calm     70% 0 in 0 W/m2
21:04 61 °F 51.4 °F 30.1 in Calm     71% 0 in 0 W/m2
21:09 60.6 °F 50.7 °F 30.1 in Calm     70% 0 in 0 W/m2
21:14 60.3 °F 51.3 °F 30.1 in Calm     72% 0 in 0 W/m2
21:19 60.1 °F 51.4 °F 30.1 in Calm     73% 0 in 0 W/m2
21:24 59.7 °F 51.1 °F 30.1 in Calm     73% 0 in 0 W/m2
21:29 59.5 °F 50.9 °F 30.1 in Calm     73% 0 in 0 W/m2
21:34 59.2 °F 50.9 °F 30.1 in Calm     74% 0 in 0 W/m2
21:39 59 °F 51.1 °F 30.1 in Calm     75% 0 in 0 W/m2
21:44 58.8 °F 51.3 °F 30.1 in WNW 2 mph 2 mph 76% 0 in 0 W/m2
21:49 58.8 °F 51.6 °F 30.1 in Calm     77% 0 in 0 W/m2
21:54 58.8 °F 51.6 °F 30.1 in WNW 2 mph 2 mph 77% 0 in 0 W/m2
21:59 58.6 °F 51.1 °F 30.1 in WNW 0.9 mph 2 mph 76% 0 in 0 W/m2
22:04 58.5 °F 51.3 °F 30.1 in Calm     77% 0 in 0 W/m2
22:09 58.5 °F 51.3 °F 30.1 in Calm     77% 0 in 0 W/m2
22:14 58.5 °F 51.3 °F 30.1 in Calm     77% 0 in 0 W/m2
22:19 58.5 °F 51.3 °F 30.1 in Calm     77% 0 in 0 W/m2
22:24 58.5 °F 51.3 °F 30.1 in Calm     77% 0 in 0 W/m2
22:29 58.3 °F 51.1 °F 30.1 in Calm     77% 0 in 0 W/m2
22:34 58.3 °F 51.1 °F 30.1 in Calm     77% 0 in 0 W/m2
22:39 58.1 °F 50.9 °F 30.1 in Calm     77% 0 in 0 W/m2
22:44 57.9 °F 50.7 °F 30.1 in Calm     77% 0 in 0 W/m2
22:49 57.9 °F 50.7 °F 30.1 in Calm     77% 0 in 0 W/m2
22:54 57.7 °F 50.9 °F 30.1 in Calm     78% 0 in 0 W/m2
22:59 57.6 °F 50.7 °F 30.1 in Calm     78% 0 in 0 W/m2
23:04 57.4 °F 50.9 °F 30.1 in Calm     79% 0 in 0 W/m2
23:09 57.2 °F 51.1 °F 30.1 in Calm     80% 0 in 0 W/m2
23:14 57 °F 50.9 °F 30.1 in Calm     80% 0 in 0 W/m2
23:19 56.8 °F 51.1 °F 30.1 in Calm     81% 0 in 0 W/m2
23:24 56.7 °F 50.9 °F 30.1 in Calm     81% 0 in 0 W/m2
23:29 56.5 °F 50.7 °F 30.1 in Calm     81% 0 in 0 W/m2
23:34 56.1 °F 50.7 °F 30.1 in Calm     82% 0 in 0 W/m2
23:39 55.9 °F 50.5 °F 30.1 in Calm     82% 0 in 0 W/m2
23:44 55.9 °F 50.5 °F 30.1 in Calm     82% 0 in 0 W/m2
23:49 55.8 °F 50.4 °F 30.1 in Calm     82% 0 in 0 W/m2
23:54 55.6 °F 50.5 °F 30.1 in Calm     83% 0 in 0 W/m2
23:59 55.4 °F 50.4 °F 30.1 in Calm     83% 0 in 0 W/m2
Juneau County Weather
Compliments of Weather Underground - 4 mb